createdAt,value
2022-11-05T00:01:43.905Z,97246.81
2022-11-05T00:04:04.403Z,97243.03
2022-11-05T00:06:25.953Z,97239.59
2022-11-05T00:08:46.554Z,97246.94
2022-11-05T00:10:54.654Z,97256.16
2022-11-05T00:13:18.021Z,97261.69
2022-11-05T00:15:38.521Z,97263.69
2022-11-05T00:17:46.781Z,97273.22
2022-11-05T00:19:54.875Z,97275.38
2022-11-05T00:22:15.013Z,97277.97
2022-11-05T00:24:36.026Z,97286.88
2022-11-05T00:26:44.220Z,97284.03
2022-11-05T00:28:55.080Z,97282.72
2022-11-05T00:31:04.845Z,97286.81
2022-11-05T00:33:15.110Z,97285.06
2022-11-05T00:35:26.420Z,97288.00
2022-11-05T00:37:35.762Z,97284.63
2022-11-05T00:39:43.895Z,97289.59
2022-11-05T00:42:13.164Z,97283.13
2022-11-05T00:44:36.151Z,97289.34
2022-11-05T00:46:44.737Z,97295.31
2022-11-05T00:49:08.292Z,97297.75
2022-11-05T00:51:16.383Z,97304.28
2022-11-05T00:53:25.724Z,97319.78
2022-11-05T00:55:38.345Z,97323.69
2022-11-05T00:57:46.604Z,97322.44
2022-11-05T00:59:57.405Z,97331.25
2022-11-05T01:02:05.565Z,97334.66
2022-11-05T01:04:14.226Z,97345.16
2022-11-05T01:06:22.732Z,97339.00
2022-11-05T01:08:31.434Z,97343.66
2022-11-05T01:10:44.708Z,97346.72
2022-11-05T01:12:53.094Z,97337.22
2022-11-05T01:15:04.311Z,97343.25
2022-11-05T01:17:12.542Z,97333.59
2022-11-05T01:19:20.617Z,97339.75
2022-11-05T01:21:28.665Z,97338.75
2022-11-05T01:23:36.932Z,97340.72
2022-11-05T01:25:45.904Z,97343.75
2022-11-05T01:27:54.281Z,97347.66
2022-11-05T01:30:08.318Z,97349.06
2022-11-05T01:32:17.481Z,97345.34
2022-11-05T01:34:25.903Z,97345.88
2022-11-05T01:36:34.543Z,97351.91
2022-11-05T01:38:43.556Z,97352.94
2022-11-05T01:40:51.988Z,97355.66
2022-11-05T01:43:00.349Z,97364.88
2022-11-05T01:45:20.050Z,97358.81
2022-11-05T01:47:36.687Z,97357.97
2022-11-05T01:49:48.008Z,97357.31
2022-11-05T01:51:57.404Z,97356.47
2022-11-05T01:54:08.747Z,97361.66
2022-11-05T01:56:20.176Z,97355.41
2022-11-05T01:58:34.384Z,97363.06
2022-11-05T02:00:47.495Z,97365.31
2022-11-05T02:02:55.915Z,97354.47
2022-11-05T02:05:09.697Z,97358.81
2022-11-05T02:07:18.529Z,97368.19
2022-11-05T02:09:30.730Z,97372.38
2022-11-05T02:11:38.776Z,97372.53
2022-11-05T02:13:47.353Z,97377.72
2022-11-05T02:16:06.017Z,97375.75
2022-11-05T02:18:23.664Z,97370.06
2022-11-05T02:20:37.704Z,97372.81
2022-11-05T02:23:15.468Z,97378.34
2022-11-05T02:25:48.105Z,97378.63
2022-11-05T02:28:26.325Z,97371.69
2022-11-05T02:30:46.754Z,97373.59
2022-11-05T02:33:13.222Z,97373.03
2022-11-05T02:35:34.750Z,97366.78
2022-11-05T02:37:44.999Z,97368.09
2022-11-05T02:40:00.170Z,97369.44
2022-11-05T02:42:19.892Z,97369.91
2022-11-05T02:44:37.381Z,97373.03
2022-11-05T02:46:54.585Z,97372.31
2022-11-05T02:49:11.724Z,97375.69
2022-11-05T02:51:26.461Z,97371.06
2022-11-05T02:53:43.485Z,97372.38
2022-11-05T02:55:59.539Z,97374.91
2022-11-05T02:58:08.637Z,97390.63
2022-11-05T03:00:52.254Z,97385.72
2022-11-05T03:03:03.048Z,97382.69
2022-11-05T03:05:12.848Z,97375.47
2022-11-05T03:07:33.001Z,97379.44
2022-11-05T03:10:08.893Z,97387.22
2022-11-05T03:12:29.910Z,97390.34
2022-11-05T03:14:47.208Z,97393.75
2022-11-05T03:17:01.393Z,97391.19
2022-11-05T03:19:20.273Z,97388.28
2022-11-05T03:21:42.684Z,97390.97
2022-11-05T03:23:57.836Z,97399.16
2022-11-05T03:26:11.385Z,97401.69
2022-11-05T03:28:25.224Z,97390.72
2022-11-05T03:30:35.639Z,97402.00
2022-11-05T03:32:51.088Z,97397.09
2022-11-05T03:35:09.040Z,97399.03
2022-11-05T03:37:21.019Z,97397.34
2022-11-05T03:39:33.314Z,97401.88
2022-11-05T03:41:45.134Z,97412.69
2022-11-05T03:43:58.365Z,97406.84
2022-11-05T03:46:12.025Z,97415.06
2022-11-05T03:48:22.479Z,97416.50
2022-11-05T03:50:41.430Z,97416.09
2022-11-05T03:52:55.165Z,97421.88
2022-11-05T03:55:03.523Z,97416.00
2022-11-05T03:57:18.013Z,97421.00
2022-11-05T03:59:27.081Z,97422.44
2022-11-05T04:01:36.854Z,97428.78
2022-11-05T04:03:46.493Z,97429.44
2022-11-05T04:06:11.236Z,97423.19
2022-11-05T04:08:33.291Z,97421.22
2022-11-05T04:11:02.554Z,97422.06
2022-11-05T04:13:28.699Z,97434.00
2022-11-05T04:15:57.109Z,97423.00
2022-11-05T04:18:02.837Z,97440.72
2022-11-05T04:20:23.590Z,97436.47
2022-11-05T04:22:48.450Z,97445.75
2022-11-05T04:24:57.734Z,97441.31
2022-11-05T04:27:05.715Z,97440.72
2022-11-05T04:29:28.012Z,97452.09
2022-11-05T04:31:36.073Z,97458.81
2022-11-05T04:33:45.410Z,97456.41
2022-11-05T04:35:53.594Z,97463.53
2022-11-05T04:38:05.005Z,97452.16
2022-11-05T04:40:13.787Z,97450.25
2022-11-05T04:42:23.359Z,97454.25
2022-11-05T04:44:32.170Z,97446.31
2022-11-05T04:46:40.555Z,97447.25
2022-11-05T04:48:48.749Z,97438.34
2022-11-05T04:50:57.057Z,97438.53
2022-11-05T04:53:08.061Z,97436.44
2022-11-05T04:55:17.950Z,97441.47
2022-11-05T04:57:30.994Z,97446.59
2022-11-05T04:59:39.152Z,97453.50
2022-11-05T05:02:11.527Z,97454.63
2022-11-05T05:04:21.032Z,97453.31
2022-11-05T05:06:29.260Z,97448.38
2022-11-05T05:08:40.150Z,97448.50
2022-11-05T05:10:48.200Z,97450.75
2022-11-05T05:12:57.169Z,97454.44
2022-11-05T05:15:05.370Z,97451.59
2022-11-05T05:17:14.020Z,97451.78
2022-11-05T05:19:22.079Z,97454.63
2022-11-05T05:21:40.625Z,97456.06
2022-11-05T05:23:52.561Z,97458.25
2022-11-05T05:26:02.342Z,97455.38
2022-11-05T05:28:11.196Z,97475.44
2022-11-05T05:30:19.737Z,97468.56
2022-11-05T05:32:28.755Z,97476.03
2022-11-05T05:34:37.217Z,97477.72
2022-11-05T05:36:45.366Z,97475.38
2022-11-05T05:38:57.856Z,97480.47
2022-11-05T05:41:06.431Z,97482.53
2022-11-05T05:43:14.873Z,97484.72
2022-11-05T05:45:23.064Z,97481.31
2022-11-05T05:47:31.236Z,97481.41
2022-11-05T05:49:39.293Z,97481.31
2022-11-05T05:51:47.393Z,97476.78
2022-11-05T05:53:58.800Z,97489.16
2022-11-05T05:56:08.123Z,97493.63
2022-11-05T05:58:16.436Z,97492.19
2022-11-05T06:00:24.792Z,97498.66
2022-11-05T06:02:33.712Z,97492.28
2022-11-05T06:04:43.325Z,97496.84
2022-11-05T06:06:53.099Z,97503.00
2022-11-05T06:09:04.301Z,97499.22
2022-11-05T06:11:12.750Z,97504.69
2022-11-05T06:13:20.631Z,97501.22
2022-11-05T06:15:34.611Z,97508.97
2022-11-05T06:17:54.556Z,97516.84
2022-11-05T06:20:02.628Z,97515.78
2022-11-05T06:22:11.592Z,97522.50
2022-11-05T06:24:22.628Z,97523.81
2022-11-05T06:26:30.727Z,97527.41
2022-11-05T06:28:47.846Z,97521.44
2022-11-05T06:30:56.146Z,97527.16
2022-11-05T06:33:08.866Z,97529.59
2022-11-05T06:35:17.215Z,97534.16
2022-11-05T06:37:25.338Z,97544.28
2022-11-05T06:39:37.221Z,97541.56
2022-11-05T06:42:11.899Z,97545.50
2022-11-05T06:44:18.047Z,97546.44
2022-11-05T06:46:26.225Z,97549.09
2022-11-05T06:48:35.713Z,97561.31
2022-11-05T06:50:48.902Z,97566.06
2022-11-05T06:52:58.878Z,97564.31
2022-11-05T06:55:10.349Z,97568.53
2022-11-05T06:57:18.570Z,97575.44
2022-11-05T06:59:27.153Z,97581.38
2022-11-05T07:01:37.550Z,97589.34
2022-11-05T07:03:49.207Z,97583.97
2022-11-05T07:06:00.265Z,97591.91
2022-11-05T07:08:09.125Z,97589.25
2022-11-05T07:10:22.252Z,97597.69
2022-11-05T07:12:34.191Z,97604.00
2022-11-05T07:14:44.055Z,97608.13
2022-11-05T07:16:56.344Z,97607.66
2022-11-05T07:19:04.583Z,97613.75
2022-11-05T07:21:13.276Z,97619.19
2022-11-05T07:23:22.674Z,97632.16
2022-11-05T07:25:35.158Z,97639.16
2022-11-05T07:27:43.958Z,97647.19
2022-11-05T07:29:54.802Z,97657.81
2022-11-05T07:32:04.416Z,97667.38
2022-11-05T07:34:16.757Z,97677.72
2022-11-05T07:36:26.021Z,97682.25
2022-11-05T07:38:34.266Z,97694.03
2022-11-05T07:40:46.015Z,97689.00
2022-11-05T07:42:57.755Z,97701.44
2022-11-05T07:45:07.991Z,97708.28
2022-11-05T07:47:16.069Z,97709.34
2022-11-05T07:49:25.364Z,97703.13
2022-11-05T07:51:33.772Z,97707.03
2022-11-05T07:53:45.464Z,97711.94
2022-11-05T07:55:57.434Z,97722.50
2022-11-05T07:58:05.950Z,97726.53
2022-11-05T08:00:17.568Z,97725.69
2022-11-05T08:02:26.297Z,97732.56
2022-11-05T08:04:34.752Z,97736.56
2022-11-05T08:06:43.072Z,97749.63
2022-11-05T08:08:51.139Z,97742.06
2022-11-05T08:11:09.744Z,97743.97
2022-11-05T08:13:18.451Z,97731.84
2022-11-05T08:15:28.738Z,97732.81
2022-11-05T08:17:37.264Z,97743.09
2022-11-05T08:19:45.646Z,97747.44
2022-11-05T08:21:53.729Z,97745.56
2022-11-05T08:24:02.174Z,97744.41
2022-11-05T08:26:15.137Z,97741.00
2022-11-05T08:28:25.109Z,97740.50
2022-11-05T08:30:36.779Z,97739.88
2022-11-05T08:32:44.984Z,97744.66
2022-11-05T08:34:53.173Z,97741.09
2022-11-05T08:37:04.060Z,97744.38
2022-11-05T08:39:16.980Z,97738.63
2022-11-05T08:41:28.635Z,97752.19
2022-11-05T08:43:36.903Z,97753.47
2022-11-05T08:45:45.371Z,97755.34
2022-11-05T08:47:53.796Z,97745.25
2022-11-05T08:50:02.020Z,97740.13
2022-11-05T08:52:13.662Z,97740.00
2022-11-05T08:54:23.092Z,97744.72
2022-11-05T08:56:33.863Z,97735.38
2022-11-05T08:58:43.903Z,97744.13
2022-11-05T09:00:53.370Z,97749.59
2022-11-05T09:03:02.396Z,97752.59
2022-11-05T09:05:13.271Z,97756.94
2022-11-05T09:07:23.181Z,97756.28
2022-11-05T09:09:31.386Z,97755.75
2022-11-05T09:12:09.831Z,97754.97
2022-11-05T09:14:10.765Z,97761.38
2022-11-05T09:16:22.271Z,97759.56
2022-11-05T09:18:30.996Z,97762.94
2022-11-05T09:20:40.617Z,97772.31
2022-11-05T09:22:49.332Z,97777.44
2022-11-05T09:24:57.879Z,97772.66
2022-11-05T09:27:10.393Z,97776.13
2022-11-05T09:29:22.306Z,97785.94
2022-11-05T09:31:30.629Z,97787.22
2022-11-05T09:33:40.783Z,97797.59
2022-11-05T09:35:49.380Z,97796.81
2022-11-05T09:38:00.956Z,97795.16
2022-11-05T09:40:10.659Z,97794.28
2022-11-05T09:42:24.771Z,97811.22
2022-11-05T09:44:44.625Z,97806.19
2022-11-05T09:46:58.410Z,97816.63
2022-11-05T09:49:10.812Z,97815.53
2022-11-05T09:51:23.916Z,97821.94
2022-11-05T09:53:32.814Z,97825.13
2022-11-05T09:55:45.877Z,97821.47
2022-11-05T09:58:00.688Z,97819.44
2022-11-05T10:00:13.667Z,97828.25
2022-11-05T10:02:25.636Z,97832.22
2022-11-05T10:04:37.388Z,97835.84
2022-11-05T10:06:49.958Z,97838.28
2022-11-05T10:09:07.653Z,97843.22
2022-11-05T10:11:21.448Z,97853.19
2022-11-05T10:13:40.420Z,97858.31
2022-11-05T10:15:58.986Z,97863.72
2022-11-05T10:18:18.813Z,97864.88
2022-11-05T10:20:36.198Z,97867.06
2022-11-05T10:22:49.287Z,97867.97
2022-11-05T10:24:58.956Z,97865.84
2022-11-05T10:27:08.442Z,97871.22
2022-11-05T10:29:29.863Z,97871.91
2022-11-05T10:31:40.521Z,97871.38
2022-11-05T10:33:52.371Z,97869.28
2022-11-05T10:36:07.219Z,97875.13
2022-11-05T10:38:17.443Z,97871.94
2022-11-05T10:40:35.669Z,97876.47
2022-11-05T10:42:55.334Z,97882.63
2022-11-05T10:45:18.380Z,97884.31
2022-11-05T10:47:50.267Z,97878.09
2022-11-05T10:50:03.646Z,97883.16
2022-11-05T10:52:24.379Z,97889.97
2022-11-05T10:54:37.807Z,97889.63
2022-11-05T10:56:46.054Z,97895.97
2022-11-05T10:58:58.749Z,97890.84
2022-11-05T11:01:13.716Z,97889.16
2022-11-05T11:03:49.158Z,97888.28
2022-11-05T11:06:03.446Z,97893.31
2022-11-05T11:08:26.450Z,97894.50
2022-11-05T11:10:38.432Z,97897.16
2022-11-05T11:12:48.837Z,97903.38
2022-11-05T11:15:04.159Z,97903.22
2022-11-05T11:17:31.888Z,97898.56
2022-11-05T11:19:41.501Z,97905.47
2022-11-05T11:21:50.894Z,97904.56
2022-11-05T11:24:01.157Z,97904.66
2022-11-05T11:26:11.643Z,97908.75
2022-11-05T11:28:25.407Z,97908.06
2022-11-05T11:30:35.367Z,97909.59
2022-11-05T11:32:46.192Z,97912.81
2022-11-05T11:34:58.485Z,97920.19
2022-11-05T11:37:12.901Z,97917.78
2022-11-05T11:39:33.416Z,97916.00
2022-11-05T11:41:46.653Z,97918.97
2022-11-05T11:43:59.001Z,97915.41
2022-11-05T11:46:16.479Z,97926.19
2022-11-05T11:48:32.767Z,97916.34
2022-11-05T11:50:45.629Z,97922.63
2022-11-05T11:52:53.911Z,97929.47
2022-11-05T11:55:21.997Z,97927.22
2022-11-05T11:57:31.859Z,97930.50
2022-11-05T12:00:07.365Z,97925.22
2022-11-05T12:02:50.265Z,97927.97
2022-11-05T12:05:25.466Z,97920.44
2022-11-05T12:07:48.473Z,97927.75
2022-11-05T12:10:11.087Z,97923.75
2022-11-05T12:12:25.013Z,97921.38
2022-11-05T12:14:46.643Z,97913.19
2022-11-05T12:17:21.763Z,97913.13
2022-11-05T12:19:54.765Z,97911.72
2022-11-05T12:22:15.279Z,97909.88
2022-11-05T12:24:38.580Z,97904.13
2022-11-05T12:26:57.524Z,97905.06
2022-11-05T12:29:35.561Z,97905.69
2022-11-05T12:31:56.467Z,97906.66
2022-11-05T12:34:23.002Z,97905.94
2022-11-05T12:36:43.419Z,97914.06
2022-11-05T12:39:19.408Z,97907.56
2022-11-05T12:41:33.394Z,97915.66
2022-11-05T12:43:54.144Z,97912.59
2022-11-05T12:46:09.148Z,97906.63
2022-11-05T12:48:36.711Z,97906.50
2022-11-05T12:50:48.625Z,97910.19
2022-11-05T12:53:21.897Z,97909.06
2022-11-05T12:55:45.483Z,97909.28
2022-11-05T12:58:10.512Z,97913.66
2022-11-05T13:00:22.298Z,97921.03
2022-11-05T13:02:36.988Z,97915.94
2022-11-05T13:04:50.115Z,97914.25
2022-11-05T13:06:59.011Z,97912.97
2022-11-05T13:09:15.274Z,97914.63
2022-11-05T13:11:31.136Z,97915.78
2022-11-05T13:13:43.907Z,97908.75
2022-11-05T13:15:58.830Z,97912.06
2022-11-05T13:18:13.467Z,97914.56
2022-11-05T13:20:26.198Z,97917.34
2022-11-05T13:22:41.397Z,97923.47
2022-11-05T13:24:52.539Z,97922.25
2022-11-05T13:27:11.331Z,97919.41
2022-11-05T13:29:26.175Z,97920.50
2022-11-05T13:31:38.801Z,97923.72
2022-11-05T13:33:50.482Z,97925.28
2022-11-05T13:36:17.606Z,97922.47
2022-11-05T13:38:41.246Z,97920.19
2022-11-05T13:41:07.744Z,97925.97
2022-11-05T13:43:38.879Z,97925.09
2022-11-05T13:46:06.054Z,97925.22
2022-11-05T13:49:01.664Z,97922.84
2022-11-05T13:51:39.294Z,97929.09
2022-11-05T13:54:10.988Z,97930.81
2022-11-05T13:56:32.347Z,97928.66
2022-11-05T13:59:06.904Z,97930.81
2022-11-05T14:01:25.626Z,97934.78
2022-11-05T14:03:34.466Z,97932.69
2022-11-05T14:05:45.537Z,97927.16
2022-11-05T14:07:55.663Z,97928.06
2022-11-05T14:10:16.567Z,97927.38
2022-11-05T14:12:28.762Z,97933.34
2022-11-05T14:14:46.730Z,97932.84
2022-11-05T14:16:57.823Z,97929.53
2022-11-05T14:19:35.670Z,97934.94
2022-11-05T14:21:53.022Z,97938.88
2022-11-05T14:24:03.027Z,97935.97
2022-11-05T14:26:23.404Z,97938.88
2022-11-05T14:28:44.371Z,97938.19
2022-11-05T14:30:56.944Z,97941.59
2022-11-05T14:33:08.065Z,97935.63
2022-11-05T14:35:39.707Z,97944.88
2022-11-05T14:37:56.994Z,97940.16
2022-11-05T14:40:32.035Z,97951.25
2022-11-05T14:42:40.648Z,97944.16
2022-11-05T14:45:04.574Z,97952.72
2022-11-05T14:47:25.871Z,97948.72
2022-11-05T14:49:38.663Z,97945.88
2022-11-05T14:51:50.004Z,97949.50
2022-11-05T14:54:06.107Z,97963.88
2022-11-05T14:56:18.244Z,97961.47
2022-11-05T14:58:38.818Z,97961.06
2022-11-05T15:00:50.601Z,97962.75
2022-11-05T15:03:04.456Z,97961.47
2022-11-05T15:05:39.611Z,97962.66
2022-11-05T15:07:48.243Z,97962.50
2022-11-05T15:10:07.150Z,97969.78
2022-11-05T15:12:24.648Z,97963.78
2022-11-05T15:14:38.749Z,97965.31
2022-11-05T15:16:53.548Z,97959.75
2022-11-05T15:19:07.753Z,97962.66
2022-11-05T15:21:19.891Z,97965.22
2022-11-05T15:23:34.158Z,97965.31
2022-11-05T15:25:53.241Z,97963.63
2022-11-05T15:28:08.575Z,97961.06
2022-11-05T15:30:25.546Z,97963.16
2022-11-05T15:32:38.467Z,97971.22
2022-11-05T15:34:59.726Z,97963.97
2022-11-05T15:37:25.327Z,97962.66
2022-11-05T15:39:38.455Z,97964.38
2022-11-05T15:41:47.894Z,97971.81
2022-11-05T15:43:56.613Z,97974.31
2022-11-05T15:46:07.418Z,97969.00
2022-11-05T15:48:17.954Z,97964.75
2022-11-05T15:50:29.003Z,97966.97
2022-11-05T15:52:42.384Z,97964.38
2022-11-05T15:55:10.579Z,97968.75
2022-11-05T15:57:26.239Z,97981.06
2022-11-05T15:59:36.523Z,97969.75
2022-11-05T16:01:51.197Z,97973.47
2022-11-05T16:04:05.762Z,97985.75
2022-11-05T16:06:23.053Z,97975.81
2022-11-05T16:08:36.277Z,97981.38
2022-11-05T16:10:51.969Z,97979.72
2022-11-05T16:13:00.049Z,97976.47
2022-11-05T16:15:24.502Z,97973.72
2022-11-05T16:17:40.646Z,97984.59
2022-11-05T16:19:49.685Z,97984.28
2022-11-05T16:22:00.705Z,97988.72
2022-11-05T16:24:29.040Z,97998.28
2022-11-05T16:29:15.132Z,97994.94
2022-11-05T16:31:26.560Z,98002.84
2022-11-05T16:33:37.329Z,97995.22
2022-11-05T16:35:52.218Z,97992.81
2022-11-05T16:38:06.593Z,97999.47
2022-11-05T16:40:17.858Z,97999.91
2022-11-05T16:42:42.497Z,98001.16
2022-11-05T16:44:50.749Z,98011.84
2022-11-05T16:46:58.738Z,98009.34
2022-11-05T16:49:07.112Z,98014.81
2022-11-05T16:51:16.706Z,98014.00
2022-11-05T16:53:28.103Z,98022.03
2022-11-05T16:55:37.652Z,98023.44
2022-11-05T16:57:47.380Z,98018.84
2022-11-05T16:59:58.342Z,98016.19
2022-11-05T17:02:07.789Z,98012.84
2022-11-05T17:04:20.472Z,98012.22
2022-11-05T17:06:29.807Z,98009.66
2022-11-05T17:08:41.134Z,98023.34
2022-11-05T17:10:49.694Z,98024.75
2022-11-05T17:12:58.310Z,98025.97
2022-11-05T17:15:15.198Z,98023.88
2022-11-05T17:17:24.484Z,98016.88
2022-11-05T17:19:34.866Z,98018.59
2022-11-05T17:21:46.144Z,98015.72
2022-11-05T17:23:57.184Z,98014.78
2022-11-05T17:26:07.694Z,98009.06
2022-11-05T17:28:17.019Z,98009.59
2022-11-05T17:30:26.032Z,98013.72
2022-11-05T17:32:35.623Z,98008.00
2022-11-05T17:34:46.637Z,98016.94
2022-11-05T17:36:55.809Z,98018.81
2022-11-05T17:39:12.262Z,98023.13
2022-11-05T17:41:23.309Z,98022.69
2022-11-05T17:43:34.817Z,98021.47
2022-11-05T17:45:50.619Z,98008.59
2022-11-05T17:47:58.754Z,98019.53
2022-11-05T17:50:14.489Z,98019.88
2022-11-05T17:52:22.698Z,98023.66
2022-11-05T17:54:37.412Z,98018.53
2022-11-05T17:56:47.268Z,98023.28
2022-11-05T17:58:57.629Z,98020.06
2022-11-05T18:01:05.812Z,98029.31
2022-11-05T18:03:19.019Z,98028.69
2022-11-05T18:05:28.389Z,98029.69
2022-11-05T18:07:40.419Z,98029.09
2022-11-05T18:09:51.712Z,98031.84
2022-11-05T18:11:59.758Z,98035.50
2022-11-05T18:14:11.505Z,98035.81
2022-11-05T18:16:19.666Z,98044.75
2022-11-05T18:18:27.940Z,98045.22
2022-11-05T18:20:36.546Z,98044.88
2022-11-05T18:22:47.418Z,98045.13
2022-11-05T18:24:58.794Z,98049.09
2022-11-05T18:27:07.481Z,98044.16
2022-11-05T18:29:18.084Z,98043.09
2022-11-05T18:31:26.385Z,98045.09
2022-11-05T18:33:35.613Z,98054.19
2022-11-05T18:35:44.715Z,98048.38
2022-11-05T18:37:52.785Z,98029.50
2022-11-05T18:40:04.797Z,98026.97
2022-11-05T18:42:13.781Z,98031.81
2022-11-05T18:44:23.083Z,98023.53
2022-11-05T18:49:01.469Z,98017.06
2022-11-05T18:51:11.480Z,98010.13
2022-11-05T18:53:20.030Z,98019.34
2022-11-05T18:55:30.711Z,98013.31
2022-11-05T18:57:39.817Z,98008.03
2022-11-05T18:59:48.889Z,98012.25
2022-11-05T19:01:57.178Z,98006.97
2022-11-05T19:04:05.604Z,98000.69
2022-11-05T19:06:15.087Z,98002.84
2022-11-05T19:08:23.451Z,98006.97
2022-11-05T19:10:34.786Z,98006.03
2022-11-05T19:12:43.073Z,98003.69
2022-11-05T19:14:51.093Z,97997.50
2022-11-05T19:16:59.546Z,98002.59
2022-11-05T19:19:09.042Z,97999.16
2022-11-05T19:21:20.367Z,97999.91
2022-11-05T19:23:29.661Z,97997.59
2022-11-05T19:25:40.602Z,98000.22
2022-11-05T19:27:49.125Z,97990.84
2022-11-05T19:29:57.807Z,97982.50
2022-11-05T19:32:05.930Z,97988.97
2022-11-05T19:34:14.984Z,97986.72
2022-11-05T19:36:24.725Z,97992.97
2022-11-05T19:38:33.325Z,97991.63
2022-11-05T19:40:44.353Z,97982.28
2022-11-05T19:42:52.942Z,97994.50
2022-11-05T19:45:23.131Z,97992.84
2022-11-05T19:47:29.970Z,97992.25
2022-11-05T19:49:38.536Z,97997.22
2022-11-05T19:51:46.757Z,97988.19
2022-11-05T19:53:57.315Z,97997.41
2022-11-05T19:56:13.293Z,98001.16
2022-11-05T19:58:21.443Z,97998.38
2022-11-05T20:00:30.216Z,97992.72
2022-11-05T20:02:39.032Z,97995.38
2022-11-05T20:04:47.258Z,97997.16
2022-11-05T20:06:55.480Z,97991.09
2022-11-05T20:09:22.965Z,97995.44
2022-11-05T20:11:36.251Z,97999.38
2022-11-05T20:13:44.791Z,97997.84
2022-11-05T20:15:53.231Z,97998.03
2022-11-05T20:18:01.239Z,97999.06
2022-11-05T20:20:12.123Z,98001.09
2022-11-05T20:22:20.321Z,98000.47
2022-11-05T20:24:29.743Z,97999.47
2022-11-05T20:26:40.712Z,98000.25
2022-11-05T20:28:54.818Z,97998.56
2022-11-05T20:31:02.828Z,97997.19
2022-11-05T20:33:12.263Z,98002.72
2022-11-05T20:35:20.400Z,97999.31
2022-11-05T20:37:33.361Z,98003.38
2022-11-05T20:39:44.572Z,98001.66
2022-11-05T20:41:57.011Z,98007.88
2022-11-05T20:44:05.074Z,98003.47
2022-11-05T20:46:18.026Z,98014.19
2022-11-05T20:48:27.082Z,98011.03
2022-11-05T20:50:37.629Z,98014.03
2022-11-05T20:52:46.195Z,98006.47
2022-11-05T20:54:54.321Z,98012.47
2022-11-05T20:57:08.969Z,98005.19
2022-11-05T20:59:18.509Z,98002.38
2022-11-05T21:01:28.819Z,98002.44
2022-11-05T21:03:39.106Z,97994.16
2022-11-05T21:05:50.147Z,97997.03
2022-11-05T21:07:58.191Z,98004.06
2022-11-05T21:10:06.707Z,97998.97
2022-11-05T21:12:18.693Z,97998.69
2022-11-05T21:14:26.936Z,97997.84
2022-11-05T21:16:35.530Z,97997.03
2022-11-05T21:18:44.192Z,97993.34
2022-11-05T21:20:53.333Z,97995.31
2022-11-05T21:23:01.567Z,97996.31
2022-11-05T21:25:11.690Z,97991.41
2022-11-05T21:27:22.672Z,97988.19
2022-11-05T21:29:31.526Z,97981.63
2022-11-05T21:31:40.027Z,97981.88
2022-11-05T21:33:54.827Z,97985.63
2022-11-05T21:36:09.356Z,97978.31
2022-11-05T21:38:19.446Z,97982.66
2022-11-05T21:40:27.755Z,97985.78
2022-11-05T21:42:38.799Z,97988.59
2022-11-05T21:44:46.929Z,97978.28
2022-11-05T21:46:59.684Z,97983.78
2022-11-05T21:49:08.056Z,97978.75
2022-11-05T21:51:28.911Z,97973.69
2022-11-05T21:53:49.465Z,97974.75
2022-11-05T21:56:10.097Z,97967.63
2022-11-05T21:58:33.459Z,97973.31
2022-11-05T22:00:41.733Z,97972.38
2022-11-05T22:02:49.985Z,97977.81
2022-11-05T22:05:00.595Z,97971.00
2022-11-05T22:07:11.165Z,97971.22
2022-11-05T22:09:19.137Z,97974.78
2022-11-05T22:11:27.855Z,97974.34
2022-11-05T22:13:40.853Z,97964.16
2022-11-05T22:15:57.669Z,97971.47
2022-11-05T22:18:06.012Z,97974.00
2022-11-05T22:20:14.787Z,97970.69
2022-11-05T22:22:23.889Z,97972.69
2022-11-05T22:24:33.124Z,97969.53
2022-11-05T22:26:43.328Z,97967.94
2022-11-05T22:28:56.131Z,97968.31
2022-11-05T22:31:04.356Z,97960.56
2022-11-05T22:33:14.130Z,97958.81
2022-11-05T22:35:22.436Z,97957.94
2022-11-05T22:37:30.861Z,97959.00
2022-11-05T22:39:39.041Z,97956.41
2022-11-05T22:41:47.465Z,97958.94
2022-11-05T22:43:58.903Z,97959.19
2022-11-05T22:46:08.266Z,97952.13
2022-11-05T22:48:16.633Z,97945.84
2022-11-05T22:50:24.816Z,97948.56
2022-11-05T22:52:33.119Z,97940.75
2022-11-05T22:54:41.844Z,97940.75
2022-11-05T22:56:50.448Z,97939.19
2022-11-05T22:59:02.152Z,97938.00
2022-11-05T23:01:13.643Z,97940.91
2022-11-05T23:03:21.642Z,97946.19
2022-11-05T23:05:30.535Z,97938.41
2022-11-05T23:07:53.083Z,97931.44
2022-11-05T23:10:13.655Z,97928.06
2022-11-05T23:12:25.895Z,97928.09
2022-11-05T23:14:38.184Z,97919.16
2022-11-05T23:16:59.350Z,97923.50
2022-11-05T23:19:19.767Z,97919.25
2022-11-05T23:21:40.483Z,97926.41
2022-11-05T23:24:00.767Z,97913.94
2022-11-05T23:26:29.084Z,97918.34
2022-11-05T23:28:37.260Z,97912.44
2022-11-05T23:31:00.419Z,97914.19
2022-11-05T23:33:08.585Z,97913.19
2022-11-05T23:35:17.651Z,97921.94
2022-11-05T23:37:49.546Z,97918.66
2022-11-05T23:39:57.745Z,97916.84
2022-11-05T23:42:18.126Z,97913.25
2022-11-05T23:44:38.704Z,97920.09
2022-11-05T23:47:01.822Z,97913.06
2022-11-05T23:49:11.816Z,97911.47
2022-11-05T23:51:19.969Z,97907.22
2022-11-05T23:53:29.177Z,97904.25
2022-11-05T23:55:38.698Z,97897.38
2022-11-05T23:57:46.944Z,97900.97
2022-11-05T23:59:54.954Z,97899.22
